Time;durP1;ratioP1;P1;durP2;ratioP2;P2;SDS_P1;SDS_P2;PMS_P1;PMS_P2;Temp;Humidity;BMP_temperature;BMP_pressure;BME280_temperature;BME280_humidity;BME280_pressure;Samples;Min_cycle;Max_cycle;Signal;HPM_P1;HPM_P2
2023/08/11 00:02:01;;;;;;;5.13;4.15;;;;;;;17.37;96.74;101913.69;5029400;28;20412;-81
2023/08/11 00:04:26;;;;;;;4.20;3.80;;;;;;;17.35;96.85;101919.13;5031328;28;20061;-81
2023/08/11 00:06:52;;;;;;;5.05;4.10;;;;;;;17.29;97.54;101919.66;5030189;28;20104;-81
2023/08/11 00:09:18;;;;;;;4.65;4.22;;;;;;;17.25;97.91;101920.06;5039417;28;20048;-81
2023/08/11 00:11:44;;;;;;;7.00;4.40;;;;;;;17.21;98.08;101916.78;5048363;28;20052;-81
2023/08/11 00:14:10;;;;;;;4.72;3.92;;;;;;;17.22;98.18;101913.19;5028473;28;20033;-81
2023/08/11 00:16:35;;;;;;;5.78;4.05;;;;;;;17.14;98.30;101915.63;5062047;28;20393;-81
2023/08/11 00:19:01;;;;;;;7.55;4.63;;;;;;;17.10;98.67;101914.22;5062195;28;20300;-81
2023/08/11 00:21:26;;;;;;;6.50;4.63;;;;;;;17.09;98.82;101909.84;5037922;28;20078;-81
2023/08/11 00:23:52;;;;;;;6.95;4.82;;;;;;;17.07;98.99;101914.47;5050262;28;20021;-81
2023/08/11 00:26:17;;;;;;;5.63;4.30;;;;;;;17.05;99.06;101908.44;5047484;28;20029;-81
2023/08/11 00:28:44;;;;;;;6.75;4.63;;;;;;;16.99;99.07;101906.31;5050649;28;20108;-81
2023/08/11 00:31:13;;;;;;;4.78;4.07;;;;;;;16.96;99.22;101906.56;5014338;28;20438;-81
2023/08/11 00:33:40;;;;;;;5.72;4.38;;;;;;;16.89;99.60;101911.56;5029348;28;20029;-81
2023/08/11 00:36:06;;;;;;;5.13;4.60;;;;;;;16.82;99.60;101910.38;5030368;28;20473;-81
2023/08/11 00:38:38;;;;;;;4.95;4.45;;;;;;;16.79;99.97;101911.44;5039950;28;20036;-81
2023/08/11 00:41:05;;;;;;;6.07;4.70;;;;;;;16.73;100.00;101914.63;5030479;28;20036;-81
2023/08/11 00:43:30;;;;;;;7.60;4.80;;;;;;;16.69;100.00;101902.56;5030857;28;20387;-82
2023/08/11 00:45:56;;;;;;;8.10;4.90;;;;;;;16.64;100.00;101903.88;5044284;28;20127;-81
2023/08/11 00:48:21;;;;;;;5.70;4.30;;;;;;;16.63;100.00;101895.06;5034372;28;20032;-81
2023/08/11 00:50:47;;;;;;;4.90;4.40;;;;;;;16.65;100.00;101893.13;5050478;28;20028;-81
2023/08/11 00:53:13;;;;;;;5.10;4.60;;;;;;;16.53;100.00;101894.16;5030678;28;20051;-81
2023/08/11 00:55:38;;;;;;;6.00;4.60;;;;;;;16.51;100.00;101883.66;5048029;28;20035;-81
2023/08/11 00:58:05;;;;;;;7.10;4.35;;;;;;;16.50;100.00;101884.63;5044917;28;20126;-81
2023/08/11 01:00:31;;;;;;;5.95;4.60;;;;;;;16.48;100.00;101883.06;5030879;28;20025;-81
2023/08/11 01:02:57;;;;;;;5.10;4.60;;;;;;;16.44;100.00;101877.16;5030206;28;20022;-81
2023/08/11 01:05:22;;;;;;;6.45;4.53;;;;;;;16.41;100.00;101874.75;5023505;28;20516;-81
2023/08/11 01:07:51;;;;;;;6.13;4.57;;;;;;;16.36;100.00;101876.06;5036910;28;20056;-81
2023/08/11 01:10:28;;;;;;;7.13;4.70;;;;;;;16.37;100.00;101877.75;5038032;28;20509;-82
2023/08/11 01:13:13;;;;;;;5.38;4.88;;;;;;;16.34;100.00;101878.00;5035794;28;20029;-82
2023/08/11 01:15:44;;;;;;;7.55;5.20;;;;;;;16.25;100.00;101875.16;5029299;28;20040;-82
2023/08/11 01:18:11;;;;;;;5.60;5.10;;;;;;;16.25;100.00;101869.00;5030098;28;20017;-82
2023/08/11 01:20:37;;;;;;;8.75;5.32;;;;;;;16.22;100.00;101864.78;5023216;28;20039;-82
2023/08/11 01:23:06;;;;;;;6.05;5.45;;;;;;;16.25;100.00;101864.53;5043196;28;20115;-82
2023/08/11 01:25:33;;;;;;;8.18;5.40;;;;;;;16.20;100.00;101869.38;5045979;28;20037;-82
2023/08/11 01:28:00;;;;;;;7.43;5.30;;;;;;;16.16;100.00;101865.28;5039448;28;20080;-82
2023/08/11 01:30:27;;;;;;;9.68;5.65;;;;;;;16.12;100.00;101865.66;5034334;28;20121;-82
2023/08/11 01:32:53;;;;;;;8.13;5.53;;;;;;;16.17;100.00;101861.66;5027671;28;20028;-82
2023/08/11 01:35:19;;;;;;;6.53;5.07;;;;;;;16.11;100.00;101862.16;5029679;28;20037;-81
2023/08/11 01:37:45;;;;;;;6.65;5.43;;;;;;;16.12;100.00;101868.31;5022999;28;20043;-82
2023/08/11 01:40:11;;;;;;;7.13;5.70;;;;;;;16.05;100.00;101872.44;5028870;28;20028;-82
2023/08/11 01:42:44;;;;;;;7.30;5.78;;;;;;;15.99;100.00;101869.28;5035244;28;20409;-82
2023/08/11 01:45:11;;;;;;;8.45;5.53;;;;;;;15.98;100.00;101866.75;5009948;28;20032;-82
2023/08/11 01:47:39;;;;;;;8.40;5.65;;;;;;;15.95;100.00;101867.00;5010305;28;20101;-82
2023/08/11 01:50:10;;;;;;;8.57;6.10;;;;;;;15.90;100.00;101867.38;5010403;28;20102;-82
2023/08/11 01:52:41;;;;;;;8.10;5.88;;;;;;;15.88;100.00;101864.00;5025769;28;20095;-82
2023/08/11 01:55:11;;;;;;;6.38;5.78;;;;;;;15.82;100.00;101861.00;5013905;28;20053;-82
2023/08/11 01:57:38;;;;;;;9.27;6.55;;;;;;;15.79;100.00;101855.94;5041971;28;20026;-82
2023/08/11 02:00:13;;;;;;;7.70;5.57;;;;;;;15.79;100.00;101855.94;5029194;28;20028;-82
2023/08/11 02:02:43;;;;;;;6.90;5.90;;;;;;;15.76;100.00;101851.72;5029673;28;20072;-82
2023/08/11 02:05:11;;;;;;;6.80;6.10;;;;;;;15.75;100.00;101851.84;5037602;28;20030;-82
2023/08/11 02:07:40;;;;;;;6.70;5.82;;;;;;;15.70;100.00;101851.38;5039947;28;20033;-82
2023/08/11 02:10:08;;;;;;;7.22;6.28;;;;;;;15.66;100.00;101848.97;5022155;28;20100;-82
2023/08/11 02:12:34;;;;;;;7.22;6.05;;;;;;;15.65;100.00;101849.94;5028570;28;20401;-82
2023/08/11 02:15:00;;;;;;;7.78;6.30;;;;;;;15.66;100.00;101842.81;5027789;28;20026;-82
2023/08/11 02:17:25;;;;;;;7.28;6.00;;;;;;;15.61;100.00;101840.53;5028877;28;20535;-82
2023/08/11 02:19:51;;;;;;;7.82;6.50;;;;;;;15.59;100.00;101838.94;5042377;28;20469;-82
2023/08/11 02:22:16;;;;;;;7.95;6.13;;;;;;;15.58;100.00;101838.09;5048582;28;20049;-82
2023/08/11 02:24:42;;;;;;;7.35;6.40;;;;;;;15.53;100.00;101834.91;5036844;28;20025;-82
2023/08/11 02:27:09;;;;;;;7.32;6.57;;;;;;;15.57;100.00;101841.66;5035799;28;20116;-82
2023/08/11 02:29:35;;;;;;;7.20;6.50;;;;;;;15.54;100.00;101841.91;5041040;28;20079;-82
2023/08/11 02:32:03;;;;;;;10.68;6.50;;;;;;;15.52;100.00;101850.97;5062468;28;20033;-82
2023/08/11 02:34:30;;;;;;;7.72;7.03;;;;;;;15.47;100.00;101850.47;5047666;28;20104;-82
2023/08/11 02:36:56;;;;;;;7.93;7.20;;;;;;;15.43;100.00;101849.88;5047625;28;20473;-82
2023/08/11 02:39:21;;;;;;;8.35;7.55;;;;;;;15.45;100.00;101853.25;5032767;28;20030;-82
2023/08/11 02:41:46;;;;;;;9.02;7.43;;;;;;;15.43;100.00;101855.19;5061332;28;20033;-82
2023/08/11 02:44:12;;;;;;;8.68;7.70;;;;;;;15.39;100.00;101853.75;5024525;28;20057;-82
2023/08/11 02:46:37;;;;;;;10.80;7.65;;;;;;;15.39;100.00;101855.56;5038041;28;20115;-82
2023/08/11 02:49:03;;;;;;;8.80;7.90;;;;;;;15.35;100.00;101860.25;5031603;28;20029;-82
2023/08/11 02:51:28;;;;;;;10.27;8.70;;;;;;;15.29;100.00;101856.28;5042518;28;20159;-82
2023/08/11 02:53:54;;;;;;;9.43;8.52;;;;;;;15.30;100.00;101862.41;5048226;28;20432;-82
2023/08/11 02:56:19;;;;;;;9.52;8.60;;;;;;;15.26;100.00;101855.66;5045967;28;20548;-82
2023/08/11 02:58:45;;;;;;;10.82;8.90;;;;;;;15.25;100.00;101856.63;5046481;28;20439;-82
2023/08/11 03:01:10;;;;;;;10.75;9.65;;;;;;;15.22;100.00;101851.56;5030195;28;20530;-82
2023/08/11 03:03:36;;;;;;;11.77;8.82;;;;;;;15.21;100.00;101849.84;5038523;28;20070;-82
2023/08/11 03:06:04;;;;;;;9.75;8.73;;;;;;;15.23;100.00;101847.97;5047452;28;20055;-82
2023/08/11 03:08:30;;;;;;;8.63;7.82;;;;;;;15.20;100.00;101840.22;5048169;28;20103;-82
2023/08/11 03:10:55;;;;;;;10.00;8.75;;;;;;;15.15;100.00;101839.72;5051728;28;20052;-82
2023/08/11 03:13:21;;;;;;;10.70;8.77;;;;;;;15.17;100.00;101843.09;5048931;28;20025;-82
2023/08/11 03:15:46;;;;;;;10.00;9.00;;;;;;;15.16;100.00;101836.13;5052135;28;20029;-82
2023/08/11 03:18:12;;;;;;;11.20;9.95;;;;;;;15.16;100.00;101836.13;5034719;28;20026;-82
2023/08/11 03:20:38;;;;;;;11.15;9.80;;;;;;;15.16;100.00;101841.41;5033618;28;20016;-82
2023/08/11 03:23:10;;;;;;;11.80;10.60;;;;;;;15.14;100.00;101838.88;5047421;28;20025;-82
2023/08/11 03:25:35;;;;;;;11.45;10.23;;;;;;;15.19;100.00;101841.19;5048684;28;20028;-82
2023/08/11 03:28:01;;;;;;;11.82;10.60;;;;;;;15.14;100.00;101838.03;5037051;28;20037;-82
2023/08/11 03:30:26;;;;;;;12.55;11.15;;;;;;;15.14;100.00;101844.19;5038982;28;20535;-82
2023/08/11 03:32:51;;;;;;;17.27;11.52;;;;;;;15.08;100.00;101839.38;5042074;28;20029;-82
2023/08/11 03:35:17;;;;;;;12.63;11.32;;;;;;;15.07;100.00;101837.66;5030277;28;20033;-82
2023/08/11 03:37:43;;;;;;;13.10;11.70;;;;;;;15.05;100.00;101832.50;5033332;28;20022;-82
2023/08/11 03:40:12;;;;;;;11.75;10.52;;;;;;;15.08;100.00;101833.22;5031772;28;20075;-82
2023/08/11 03:42:42;;;;;;;13.05;11.20;;;;;;;15.11;100.00;101832.97;5031472;28;20017;-82
2023/08/11 03:45:12;;;;;;;17.35;12.52;;;;;;;15.01;100.00;101827.53;5045179;28;20021;-82
2023/08/11 03:47:39;;;;;;;13.90;12.27;;;;;;;15.01;100.00;101825.75;5050870;28;20067;-82
2023/08/11 03:50:06;;;;;;;14.57;12.30;;;;;;;15.00;100.00;101832.00;5051792;28;20068;-82
2023/08/11 03:52:32;;;;;;;13.48;12.07;;;;;;;15.01;100.00;101832.84;5035023;28;20032;-82
2023/08/11 03:54:57;;;;;;;13.45;12.10;;;;;;;15.02;100.00;101829.22;5044475;28;20033;-82
2023/08/11 03:57:23;;;;;;;13.40;12.00;;;;;;;14.99;100.00;101830.31;5031086;28;20112;-82
2023/08/11 03:59:48;;;;;;;14.35;12.55;;;;;;;14.96;100.00;101825.25;5031467;28;20035;-82
2023/08/11 04:02:14;;;;;;;14.50;12.30;;;;;;;14.96;100.00;101827.91;5042966;28;20033;-82
2023/08/11 04:04:39;;;;;;;19.58;12.77;;;;;;;14.93;100.00;101828.13;5050438;28;20041;-82
2023/08/11 04:07:05;;;;;;;13.48;11.88;;;;;;;14.94;100.00;101827.19;5048904;28;20021;-82
2023/08/11 04:09:30;;;;;;;16.70;11.80;;;;;;;14.94;100.00;101832.47;5040322;28;20392;-82
2023/08/11 04:11:56;;;;;;;14.25;12.02;;;;;;;14.94;100.00;101824.53;5031502;28;20086;-82
2023/08/11 04:14:22;;;;;;;15.00;13.40;;;;;;;14.95;100.00;101838.63;5049197;28;20074;-82
2023/08/11 04:16:47;;;;;;;14.13;12.73;;;;;;;14.94;100.00;101829.81;5032678;28;20021;-82
2023/08/11 04:19:13;;;;;;;14.57;12.23;;;;;;;14.91;100.00;101829.22;5031121;28;20298;-82
2023/08/11 04:21:40;;;;;;;16.48;13.23;;;;;;;14.86;100.00;101828.72;5029373;28;20036;-82
2023/08/11 04:24:06;;;;;;;16.65;13.27;;;;;;;14.87;100.00;101833.91;5038599;28;20033;-82
2023/08/11 04:26:33;;;;;;;15.18;13.68;;;;;;;14.84;100.00;101831.50;5032991;28;20037;-82
2023/08/11 04:28:58;;;;;;;15.82;14.13;;;;;;;14.87;100.00;101825.97;5030164;28;20021;-81
2023/08/11 04:31:24;;;;;;;15.77;13.60;;;;;;;14.91;100.00;101842.47;5032120;28;20020;-81
2023/08/11 04:33:49;;;;;;;15.00;13.25;;;;;;;14.88;100.00;101832.09;5048078;28;20029;-82
2023/08/11 04:36:15;;;;;;;15.35;13.35;;;;;;;14.90;100.00;101831.03;5051021;28;20028;-82
2023/08/11 04:38:40;;;;;;;19.60;13.05;;;;;;;14.91;100.00;101834.53;5045653;28;20065;-82
2023/08/11 04:41:05;;;;;;;16.15;13.43;;;;;;;14.88;100.00;101829.47;5047759;28;20060;-81
2023/08/11 04:43:31;;;;;;;17.50;14.50;;;;;;;14.95;100.00;101828.88;5025995;28;20082;-82
2023/08/11 04:45:56;;;;;;;16.90;14.05;;;;;;;14.95;100.00;101820.91;5029721;28;20421;-82
2023/08/11 04:48:22;;;;;;;18.27;14.07;;;;;;;15.01;100.00;101825.75;5030507;28;20108;-82
2023/08/11 04:50:51;;;;;;;16.83;13.80;;;;;;;15.02;100.00;101824.78;5032128;28;20028;-82
2023/08/11 04:53:17;;;;;;;15.68;13.80;;;;;;;15.12;100.00;101818.75;5033226;28;20473;-82
2023/08/11 04:55:42;;;;;;;15.07;13.52;;;;;;;15.17;100.00;101813.94;5040748;28;20032;-82
2023/08/11 04:58:09;;;;;;;17.83;14.02;;;;;;;15.33;100.00;101802.03;5047985;28;20052;-82
2023/08/11 05:00:34;;;;;;;16.77;13.77;;;;;;;15.38;100.00;101809.63;5021042;28;20074;-82
2023/08/11 05:03:00;;;;;;;22.90;14.23;;;;;;;15.41;100.00;101798.78;5030369;28;20021;-82
2023/08/11 05:05:26;;;;;;;18.30;13.82;;;;;;;15.40;100.00;101807.69;5024418;28;20076;-82
2023/08/11 05:07:54;;;;;;;18.58;13.50;;;;;;;15.39;100.00;101799.84;5031735;28;20026;-82
2023/08/11 05:10:20;;;;;;;17.85;12.48;;;;;;;15.41;100.00;101806.72;5042784;28;20371;-82
2023/08/11 05:12:47;;;;;;;17.30;13.40;;;;;;;15.43;100.00;101793.34;5040021;28;20021;-82
2023/08/11 05:15:12;;;;;;;17.85;13.23;;;;;;;15.46;100.00;101801.91;5029045;28;20025;-82
2023/08/11 05:17:38;;;;;;;18.08;12.80;;;;;;;15.51;100.00;101804.19;5030295;28;20431;-82
2023/08/11 05:20:08;;;;;;;16.00;12.57;;;;;;;15.52;100.00;101811.16;5030239;28;20473;-82
2023/08/11 05:22:34;;;;;;;19.33;12.50;;;;;;;15.53;100.00;101807.56;5030402;28;20033;-81
2023/08/11 05:25:05;;;;;;;18.88;13.10;;;;;;;15.56;100.00;101810.81;5029235;28;20831;-81
2023/08/11 05:27:31;;;;;;;16.42;12.60;;;;;;;15.58;100.00;101806.25;5029868;28;20100;-81
2023/08/11 05:29:56;;;;;;;15.55;12.02;;;;;;;15.66;100.00;101797.72;5038560;28;20547;-82
2023/08/11 05:32:23;;;;;;;15.18;12.05;;;;;;;15.68;100.00;101794.94;5031706;28;20107;-82
2023/08/11 05:34:49;;;;;;;12.88;11.25;;;;;;;15.71;100.00;101794.69;5034569;28;20385;-80
2023/08/11 05:37:15;;;;;;;19.98;11.93;;;;;;;15.76;100.00;101797.81;5029658;28;20025;-80
2023/08/11 05:39:41;;;;;;;15.45;12.25;;;;;;;15.79;100.00;101801.06;5036722;28;20098;-80
2023/08/11 05:42:09;;;;;;;16.70;12.38;;;;;;;15.83;100.00;101794.53;5037038;28;20021;-80
2023/08/11 05:44:35;;;;;;;17.63;11.60;;;;;;;15.89;100.00;101801.16;5036365;28;20411;-80
2023/08/11 05:47:00;;;;;;;12.77;11.43;;;;;;;15.94;100.00;101798.94;5047703;28;20044;-80
2023/08/11 05:49:26;;;;;;;14.63;11.73;;;;;;;16.01;100.00;101797.50;5049870;28;20029;-79
2023/08/11 05:51:51;;;;;;;16.02;11.10;;;;;;;16.08;100.00;101801.34;5046664;28;20057;-80
2023/08/11 05:54:16;;;;;;;14.00;11.10;;;;;;;16.18;100.00;101804.94;5028236;28;20085;-80
2023/08/11 05:56:42;;;;;;;15.88;11.25;;;;;;;16.20;100.00;101808.28;5028721;28;20025;-80
2023/08/11 05:59:08;;;;;;;14.68;11.13;;;;;;;16.32;100.00;101797.63;5043477;28;20029;-73
2023/08/11 06:01:34;;;;;;;34.20;18.08;;;;;;;16.40;100.00;101797.81;5033242;28;20029;-75
2023/08/11 06:03:59;;;;;;;18.15;11.35;;;;;;;16.42;100.00;101803.88;5027779;28;20116;-77
2023/08/11 06:06:26;;;;;;;13.32;10.63;;;;;;;16.46;100.00;101802.66;5028465;28;20127;-77
2023/08/11 06:08:54;;;;;;;15.15;10.57;;;;;;;16.47;100.00;101791.03;5029067;28;20381;-77
2023/08/11 06:11:19;;;;;;;14.40;10.18;;;;;;;16.56;100.00;101807.06;5029969;28;20393;-77
2023/08/11 06:13:45;;;;;;;17.10;10.10;;;;;;;16.58;100.00;101799.78;5030022;28;20105;-77
2023/08/11 06:16:10;;;;;;;15.43;10.15;;;;;;;16.64;100.00;101800.25;5029308;28;20549;-76
2023/08/11 06:18:36;;;;;;;13.60;9.88;;;;;;;16.68;100.00;101799.88;5030740;28;20489;-76
2023/08/11 06:21:03;;;;;;;12.15;9.13;;;;;;;16.74;100.00;101791.38;5061326;28;20124;-76
2023/08/11 06:23:29;;;;;;;12.48;8.50;;;;;;;16.79;100.00;101798.97;5036776;28;20460;-76
2023/08/11 06:25:54;;;;;;;11.10;7.80;;;;;;;16.86;100.00;101802.81;5029001;28;20018;-76
2023/08/11 06:28:20;;;;;;;12.95;7.75;;;;;;;16.95;100.00;101798.53;5036288;28;20131;-76
2023/08/11 06:30:45;;;;;;;13.10;8.25;;;;;;;17.07;100.00;101800.13;5046825;28;20032;-76
2023/08/11 06:33:10;;;;;;;10.52;8.05;;;;;;;17.12;100.00;101797.91;5025719;28;20033;-76
2023/08/11 06:35:36;;;;;;;10.60;7.50;;;;;;;17.22;100.00;101804.13;5030004;28;20032;-76
2023/08/11 06:38:01;;;;;;;14.93;7.90;;;;;;;17.31;100.00;101805.16;5026799;28;20033;-76
2023/08/11 06:40:27;;;;;;;9.18;7.85;;;;;;;17.41;100.00;101806.03;5027146;28;20033;-76
2023/08/11 06:42:52;;;;;;;9.93;7.53;;;;;;;17.48;99.63;101808.00;5042027;28;20033;-76
2023/08/11 06:45:18;;;;;;;12.60;8.02;;;;;;;17.48;100.00;101813.31;5040008;28;20056;-76
2023/08/11 06:47:43;;;;;;;12.73;7.55;;;;;;;17.51;99.96;101807.72;5062909;28;20435;-76
2023/08/11 06:50:09;;;;;;;11.23;7.10;;;;;;;17.61;98.75;101813.13;5037135;28;20065;-76
2023/08/11 06:52:34;;;;;;;12.00;8.57;;;;;;;17.70;97.69;101806.16;5030226;28;20017;-75
2023/08/11 06:55:00;;;;;;;11.43;7.93;;;;;;;17.82;96.84;101815.72;5037177;28;20115;-75
2023/08/11 06:57:25;;;;;;;10.55;7.35;;;;;;;17.95;96.87;101816.28;5041739;28;20029;-78
2023/08/11 06:59:50;;;;;;;12.07;7.13;;;;;;;17.97;96.55;101819.66;5031786;28;20025;-78
2023/08/11 07:02:16;;;;;;;13.70;6.85;;;;;;;18.09;97.52;101821.22;5034623;28;20037;-76
2023/08/11 07:04:42;;;;;;;11.75;7.07;;;;;;;18.21;97.66;101815.75;5062741;28;20029;-75
2023/08/11 07:07:08;;;;;;;9.73;6.38;;;;;;;18.48;95.49;101818.59;5031944;28;20037;-75
2023/08/11 07:09:34;;;;;;;10.90;6.30;;;;;;;18.67;96.01;101820.41;5036663;28;20033;-76
2023/08/11 07:11:59;;;;;;;11.20;6.47;;;;;;;18.91;92.91;101815.47;5039007;28;20051;-77
2023/08/11 07:14:25;;;;;;;10.23;6.22;;;;;;;19.24;90.73;101821.28;5041559;28;20040;-76
2023/08/11 07:16:50;;;;;;;11.20;6.13;;;;;;;19.51;87.61;101815.94;5034464;28;20057;-76
2023/08/11 07:19:15;;;;;;;10.35;5.93;;;;;;;19.80;86.88;101823.00;5032042;28;20021;-76
2023/08/11 07:21:43;;;;;;;7.72;5.75;;;;;;;19.94;86.15;101822.47;5032291;28;20456;-77
2023/08/11 07:24:10;;;;;;;9.40;5.55;;;;;;;20.29;83.59;101819.00;5032931;28;20021;-77
2023/08/11 07:26:35;;;;;;;9.40;5.20;;;;;;;20.61;81.23;101823.84;5039027;28;20033;-77
2023/08/11 07:29:01;;;;;;;10.88;5.30;;;;;;;20.87;80.89;101822.03;5045668;28;20036;-77
2023/08/11 07:31:26;;;;;;;8.48;5.13;;;;;;;21.16;79.34;101826.22;5047073;28;20044;-77
2023/08/11 07:33:51;;;;;;;10.85;4.90;;;;;;;21.45;77.70;101818.69;5031479;28;20026;-77
2023/08/11 07:36:17;;;;;;;9.13;4.80;;;;;;;21.78;76.93;101819.66;5032718;28;20466;-77
2023/08/11 07:38:42;;;;;;;7.63;4.78;;;;;;;22.09;75.55;101821.78;5025878;28;20034;-77
2023/08/11 07:41:11;;;;;;;7.80;4.85;;;;;;;22.33;74.70;101821.81;5044699;28;20550;-77
2023/08/11 07:43:36;;;;;;;10.43;4.93;;;;;;;22.65;71.40;101812.94;5033089;28;20160;-76
2023/08/11 07:46:02;;;;;;;8.80;5.00;;;;;;;22.85;69.90;101818.84;5031020;28;20565;-76
2023/08/11 07:48:27;;;;;;;5.78;4.38;;;;;;;23.04;69.49;101822.97;5032033;28;20057;-77
2023/08/11 07:50:52;;;;;;;7.72;4.82;;;;;;;23.13;68.30;101822.78;5031644;28;20025;-77
2023/08/11 07:53:18;;;;;;;6.47;4.53;;;;;;;23.24;68.82;101823.44;5045029;28;20017;-78
2023/08/11 07:55:43;;;;;;;7.35;4.57;;;;;;;23.51;69.42;101817.63;5041829;28;20030;-77
2023/08/11 07:58:09;;;;;;;7.90;4.72;;;;;;;23.77;65.79;101824.59;5041163;28;20180;-77
2023/08/11 08:00:34;;;;;;;6.75;4.03;;;;;;;23.94;64.07;101821.63;5064666;28;20028;-78
2023/08/11 08:03:00;;;;;;;5.00;4.10;;;;;;;23.95;66.64;101817.09;5050786;28;20017;-77
2023/08/11 08:05:25;;;;;;;6.80;4.20;;;;;;;24.16;65.24;101819.16;5042176;28;20025;-77
2023/08/11 08:07:50;;;;;;;9.80;4.00;;;;;;;24.63;65.14;101827.88;5050359;28;20037;-76
2023/08/11 08:10:16;;;;;;;7.18;3.90;;;;;;;24.77;61.74;101820.84;5066485;28;20554;-76
2023/08/11 08:12:45;;;;;;;6.78;3.70;;;;;;;24.86;60.55;101814.38;5063506;28;20477;-77
2023/08/11 08:15:12;;;;;;;8.07;3.88;;;;;;;25.04;60.14;101819.44;5050408;28;20070;-76
2023/08/11 08:17:39;;;;;;;8.98;4.00;;;;;;;25.22;60.48;101813.72;5063049;28;20025;-76
2023/08/11 08:20:08;;;;;;;5.80;3.90;;;;;;;25.41;58.44;101810.44;5063887;28;20029;-76
2023/08/11 08:22:34;;;;;;;12.13;3.90;;;;;;;25.61;59.11;101800.72;5052998;28;20035;-77
2023/08/11 08:24:59;;;;;;;4.85;3.53;;;;;;;25.80;57.57;101810.13;5045484;28;20033;-75
2023/08/11 08:27:25;;;;;;;4.82;3.38;;;;;;;25.87;59.06;101805.63;5044882;28;20025;-75
2023/08/11 08:29:53;;;;;;;7.88;3.72;;;;;;;26.27;56.55;101816.00;5058230;28;20024;-76
2023/08/11 08:32:20;;;;;;;5.85;3.50;;;;;;;26.37;54.76;101811.97;5046399;28;20029;-76
2023/08/11 08:34:47;;;;;;;5.15;3.20;;;;;;;26.43;56.48;101821.19;5062147;28;20021;-77
2023/08/11 08:37:13;;;;;;;6.53;3.28;;;;;;;26.58;53.37;101813.81;5041377;28;20024;-77
2023/08/11 08:39:38;;;;;;;6.63;3.40;;;;;;;26.77;55.54;101813.13;5045233;28;20045;-77
2023/08/11 08:42:05;;;;;;;4.43;3.42;;;;;;;26.91;53.24;101811.38;5037514;28;20030;-76
2023/08/11 08:44:35;;;;;;;7.55;3.35;;;;;;;27.01;53.78;101819.16;5038518;28;20051;-76
2023/08/11 08:47:04;;;;;;;5.50;3.25;;;;;;;27.09;52.72;101816.28;5039420;28;20128;-78
2023/08/11 08:49:29;;;;;;;7.10;3.30;;;;;;;27.23;52.90;101812.66;5025698;28;20046;-76
2023/08/11 08:51:55;;;;;;;6.63;3.45;;;;;;;27.28;53.20;101810.19;5030773;28;20021;-77
2023/08/11 08:54:21;;;;;;;9.20;3.28;;;;;;;27.64;51.09;101811.84;5049600;28;20028;-77
2023/08/11 08:56:46;;;;;;;5.00;3.05;;;;;;;27.78;49.77;101800.84;5065451;28;20869;-77
2023/08/11 08:59:12;;;;;;;4.97;3.08;;;;;;;27.72;49.05;101808.94;5064539;28;20088;-75
2023/08/11 09:01:38;;;;;;;4.07;2.72;;;;;;;27.71;52.09;101809.97;5063992;28;20021;-74
2023/08/11 09:04:07;;;;;;;5.22;3.03;;;;;;;27.90;49.61;101798.38;5054533;28;20029;-76
2023/08/11 09:06:33;;;;;;;3.85;2.78;;;;;;;28.01;50.43;101805.88;5056984;28;20030;-76
2023/08/11 09:08:59;;;;;;;5.53;2.92;;;;;;;28.29;51.26;101810.34;5057135;28;20032;-76
2023/08/11 09:11:26;;;;;;;4.65;2.80;;;;;;;28.45;48.78;101806.41;5053938;28;20021;-74
2023/08/11 09:13:51;;;;;;;5.70;2.70;;;;;;;28.64;49.33;101808.25;5083344;28;20021;-76
2023/08/11 09:16:17;;;;;;;3.17;2.35;;;;;;;28.88;48.56;101817.66;5053469;28;20028;-75
2023/08/11 09:18:45;;;;;;;4.45;3.17;;;;;;;29.03;48.92;101810.13;5057404;28;20351;-76
2023/08/11 09:21:12;;;;;;;4.55;2.70;;;;;;;29.02;47.96;101803.03;5054068;28;20397;-75
2023/08/11 09:23:37;;;;;;;5.97;2.75;;;;;;;29.22;48.85;101809.25;5042628;28;20427;-75
2023/08/11 09:26:08;;;;;;;7.05;2.67;;;;;;;29.29;46.54;101795.66;5039331;28;20029;-76
2023/08/11 09:28:34;;;;;;;6.80;2.90;;;;;;;29.38;47.15;101807.94;5032097;28;20032;-77
2023/08/11 09:30:59;;;;;;;6.90;2.90;;;;;;;29.51;45.73;101796.22;5031226;28;20146;-76
2023/08/11 09:33:28;;;;;;;7.95;2.53;;;;;;;29.68;46.67;101796.59;5034458;28;20049;-76
2023/08/11 09:35:53;;;;;;;4.65;2.58;;;;;;;29.72;47.25;101795.09;5043405;28;20090;-76
2023/08/11 09:38:19;;;;;;;8.63;2.50;;;;;;;29.66;45.40;101794.09;5040203;28;20037;-76
2023/08/11 09:40:48;;;;;;;7.72;2.22;;;;;;;29.28;46.07;101792.13;5027528;28;20025;-76
2023/08/11 09:43:14;;;;;;;3.30;2.20;;;;;;;29.02;46.47;101797.63;5009740;28;20052;-76
2023/08/11 09:45:39;;;;;;;4.32;2.30;;;;;;;28.89;47.19;101792.22;5015942;28;20089;-76
2023/08/11 09:48:05;;;;;;;5.93;2.33;;;;;;;28.97;46.46;101789.28;5014506;28;20022;-76
2023/08/11 09:50:34;;;;;;;5.28;2.45;;;;;;;29.16;47.24;101788.38;5009246;28;20026;-76
2023/08/11 09:53:00;;;;;;;3.65;2.40;;;;;;;29.43;47.72;101778.28;5010506;28;20022;-76
2023/08/11 09:55:28;;;;;;;3.35;2.58;;;;;;;29.60;46.69;101784.06;5045902;28;20060;-76
2023/08/11 09:57:58;;;;;;;3.90;2.53;;;;;;;29.57;45.88;101784.50;5049232;28;20028;-76
2023/08/11 10:00:25;;;;;;;3.47;2.28;;;;;;;29.50;47.16;101786.44;5036434;28;20037;-76
2023/08/11 10:03:20;;;;;;;3.70;2.17;;;;;;;29.91;48.02;101789.53;5033342;28;20075;-77
2023/08/11 10:05:47;;;;;;;4.60;1.90;;;;;;;29.94;45.94;101796.41;5037642;28;20033;-77
2023/08/11 10:08:22;;;;;;;4.97;2.42;;;;;;;29.91;46.73;101792.25;5039401;28;20044;-76
2023/08/11 10:10:50;;;;;;;3.67;1.98;;;;;;;29.73;46.33;101799.47;5037117;28;20037;-76
2023/08/11 10:13:21;;;;;;;3.33;2.53;;;;;;;30.08;45.16;101791.78;5027967;28;20025;-76
2023/08/11 10:15:48;;;;;;;3.55;2.10;;;;;;;30.11;47.65;101786.75;5029629;28;20017;-76
2023/08/11 10:18:16;;;;;;;5.80;2.20;;;;;;;29.97;43.86;101785.13;5026773;28;20108;-76
2023/08/11 10:20:46;;;;;;;3.53;2.10;;;;;;;30.26;46.89;101789.13;5027050;28;20072;-76
2023/08/11 10:23:13;;;;;;;5.93;2.25;;;;;;;30.37;45.58;101784.84;5028229;28;20026;-75
2023/08/11 10:25:42;;;;;;;3.97;2.13;;;;;;;30.28;43.49;101786.19;5028274;28;20036;-76
2023/08/11 10:28:11;;;;;;;3.35;2.33;;;;;;;30.20;44.08;101790.84;5029074;28;20029;-76
2023/08/11 10:30:36;;;;;;;5.25;2.20;;;;;;;30.28;45.93;101787.00;5026729;28;20017;-76
2023/08/11 10:33:09;;;;;;;2.97;1.80;;;;;;;30.40;44.59;101777.09;5029032;28;20434;-76
2023/08/11 10:35:47;;;;;;;2.65;1.70;;;;;;;30.63;44.88;101781.13;5026013;28;20117;-75
2023/08/11 10:38:22;;;;;;;2.05;1.70;;;;;;;30.61;44.16;101780.50;5027350;28;20021;-76
2023/08/11 10:40:48;;;;;;;4.55;2.05;;;;;;;30.35;43.91;101782.34;5027668;28;20083;-76
2023/08/11 10:43:16;;;;;;;2.88;1.85;;;;;;;30.27;42.10;101777.22;5028778;28;20105;-75
2023/08/11 10:45:43;;;;;;;4.57;1.77;;;;;;;30.54;42.10;101775.94;5036473;28;20095;-77
2023/08/11 10:48:10;;;;;;;4.15;2.03;;;;;;;30.44;41.72;101780.22;5039183;28;20025;-76
2023/08/11 10:50:38;;;;;;;3.30;2.05;;;;;;;30.46;43.54;101780.81;5043849;28;20024;-76
2023/08/11 10:53:16;;;;;;;4.28;1.88;;;;;;;30.58;43.91;101781.75;5043480;28;20123;-76
2023/08/11 10:55:41;;;;;;;2.90;1.70;;;;;;;30.55;42.82;101777.59;5032173;28;20021;-76
2023/08/11 10:58:10;;;;;;;4.82;2.13;;;;;;;30.79;44.28;101778.63;5039403;28;20492;-75
2023/08/11 11:00:35;;;;;;;2.92;1.77;;;;;;;30.86;42.69;101771.28;5035577;28;20053;-76
2023/08/11 11:03:01;;;;;;;5.65;1.92;;;;;;;30.92;42.88;101772.25;5036601;28;20556;-76
2023/08/11 11:05:27;;;;;;;6.32;2.20;;;;;;;30.97;42.20;101772.41;5035604;28;20515;-75
2023/08/11 11:07:54;;;;;;;4.30;2.00;;;;;;;30.97;42.41;101774.28;5036455;28;20053;-76
2023/08/11 11:10:19;;;;;;;2.72;1.80;;;;;;;31.04;42.96;101770.44;5035908;28;20026;-76
2023/08/11 11:12:48;;;;;;;2.22;1.98;;;;;;;30.93;43.43;101778.53;5037327;28;20033;-75